sensor_id;sensor_type;location;lat;lon;timestamp;pressure;altitude;pressure_sealevel;temperature;humidity
5872;BME280;2962;51.312;7.378;2023-04-26T00:00:22;97601.41;;;2.09;100.00
5872;BME280;2962;51.312;7.378;2023-04-26T00:02:47;97608.69;;;2.08;100.00
5872;BME280;2962;51.312;7.378;2023-04-26T00:05:13;97600.09;;;1.98;100.00
5872;BME280;2962;51.312;7.378;2023-04-26T00:07:40;97590.09;;;1.89;100.00
5872;BME280;2962;51.312;7.378;2023-04-26T00:10:07;97603.72;;;1.93;100.00
5872;BME280;2962;51.312;7.378;2023-04-26T00:12:32;97611.41;;;1.86;100.00
5872;BME280;2962;51.312;7.378;2023-04-26T00:14:57;97596.22;;;1.81;100.00
5872;BME280;2962;51.312;7.378;2023-04-26T00:17:23;97592.78;;;1.67;100.00
5872;BME280;2962;51.312;7.378;2023-04-26T00:19:49;97602.44;;;1.68;100.00
5872;BME280;2962;51.312;7.378;2023-04-26T00:22:15;97610.19;;;1.69;100.00
5872;BME280;2962;51.312;7.378;2023-04-26T00:24:40;97606.41;;;1.70;100.00
5872;BME280;2962;51.312;7.378;2023-04-26T00:27:06;97585.59;;;1.54;100.00
5872;BME280;2962;51.312;7.378;2023-04-26T00:29:34;97595.66;;;1.48;100.00
5872;BME280;2962;51.312;7.378;2023-04-26T00:31:59;97596.09;;;1.41;100.00
5872;BME280;2962;51.312;7.378;2023-04-26T00:34:31;97601.59;;;1.36;100.00
5872;BME280;2962;51.312;7.378;2023-04-26T00:36:56;97590.91;;;1.45;100.00
5872;BME280;2962;51.312;7.378;2023-04-26T00:39:21;97581.88;;;1.41;100.00
5872;BME280;2962;51.312;7.378;2023-04-26T00:41:47;97588.03;;;1.41;100.00
5872;BME280;2962;51.312;7.378;2023-04-26T00:44:12;97586.31;;;1.45;100.00
5872;BME280;2962;51.312;7.378;2023-04-26T00:46:38;97593.16;;;1.52;100.00
5872;BME280;2962;51.312;7.378;2023-04-26T00:49:03;97581.03;;;1.32;100.00
5872;BME280;2962;51.312;7.378;2023-04-26T00:51:28;97588.75;;;1.33;100.00
5872;BME280;2962;51.312;7.378;2023-04-26T00:53:54;97574.97;;;1.26;100.00
5872;BME280;2962;51.312;7.378;2023-04-26T00:56:19;97586.63;;;1.21;100.00
5872;BME280;2962;51.312;7.378;2023-04-26T00:58:45;97569.34;;;1.14;100.00
5872;BME280;2962;51.312;7.378;2023-04-26T01:01:11;97575.16;;;1.30;100.00
5872;BME280;2962;51.312;7.378;2023-04-26T01:03:37;97580.28;;;1.40;100.00
5872;BME280;2962;51.312;7.378;2023-04-26T01:06:03;97576.81;;;1.39;100.00
5872;BME280;2962;51.312;7.378;2023-04-26T01:08:28;97573.16;;;1.35;100.00
5872;BME280;2962;51.312;7.378;2023-04-26T01:10:53;97576.91;;;1.34;100.00
5872;BME280;2962;51.312;7.378;2023-04-26T01:13:19;97574.97;;;1.26;100.00
5872;BME280;2962;51.312;7.378;2023-04-26T01:15:45;97583.41;;;1.33;100.00
5872;BME280;2962;51.312;7.378;2023-04-26T01:18:11;97568.44;;;1.18;100.00
5872;BME280;2962;51.312;7.378;2023-04-26T01:20:38;97573.56;;;1.06;100.00
5872;BME280;2962;51.312;7.378;2023-04-26T01:23:03;97586.31;;;1.01;100.00
5872;BME280;2962;51.312;7.378;2023-04-26T01:25:29;97598.75;;;1.19;100.00
5872;BME280;2962;51.312;7.378;2023-04-26T01:27:54;97562.41;;;1.13;100.00
5872;BME280;2962;51.312;7.378;2023-04-26T01:30:19;97584.59;;;1.05;100.00
5872;BME280;2962;51.312;7.378;2023-04-26T01:32:45;97598.09;;;1.13;100.00
5872;BME280;2962;51.312;7.378;2023-04-26T01:35:10;97602.25;;;1.19;100.00
5872;BME280;2962;51.312;7.378;2023-04-26T01:37:36;97587.66;;;1.12;100.00
5872;BME280;2962;51.312;7.378;2023-04-26T01:40:01;97598.88;;;1.14;100.00
5872;BME280;2962;51.312;7.378;2023-04-26T01:42:30;97594.47;;;1.18;100.00
5872;BME280;2962;51.312;7.378;2023-04-26T01:44:55;97604.63;;;1.21;100.00
5872;BME280;2962;51.312;7.378;2023-04-26T01:47:20;97600.97;;;1.17;100.00
5872;BME280;2962;51.312;7.378;2023-04-26T01:49:46;97597.41;;;1.08;100.00
5872;BME280;2962;51.312;7.378;2023-04-26T01:52:11;97582.81;;;1.00;100.00
5872;BME280;2962;51.312;7.378;2023-04-26T01:54:36;97591.13;;;1.12;100.00
5872;BME280;2962;51.312;7.378;2023-04-26T01:57:02;97587.47;;;1.08;100.00
5872;BME280;2962;51.312;7.378;2023-04-26T01:59:27;97589.78;;;1.01;100.00
5872;BME280;2962;51.312;7.378;2023-04-26T02:01:53;97599.81;;;0.95;100.00
5872;BME280;2962;51.312;7.378;2023-04-26T02:04:18;97591.56;;;0.92;100.00
5872;BME280;2962;51.312;7.378;2023-04-26T02:06:43;97593.78;;;0.90;100.00
5872;BME280;2962;51.312;7.378;2023-04-26T02:09:08;97599.31;;;0.93;100.00
5872;BME280;2962;51.312;7.378;2023-04-26T02:11:34;97595.81;;;1.07;100.00
5872;BME280;2962;51.312;7.378;2023-04-26T02:13:59;97594.59;;;1.13;100.00
5872;BME280;2962;51.312;7.378;2023-04-26T02:16:25;97590.34;;;1.12;100.00
5872;BME280;2962;51.312;7.378;2023-04-26T02:18:51;97576.84;;;1.03;100.00
5872;BME280;2962;51.312;7.378;2023-04-26T02:21:17;97598.94;;;1.22;100.00
5872;BME280;2962;51.312;7.378;2023-04-26T02:23:43;97594.84;;;1.25;100.00
5872;BME280;2962;51.312;7.378;2023-04-26T02:26:08;97595.66;;;1.26;100.00
5872;BME280;2962;51.312;7.378;2023-04-26T02:28:34;97581.56;;;1.20;100.00
5872;BME280;2962;51.312;7.378;2023-04-26T02:31:01;97590.22;;;1.17;100.00
5872;BME280;2962;51.312;7.378;2023-04-26T02:33:26;97587.47;;;1.08;100.00
5872;BME280;2962;51.312;7.378;2023-04-26T02:35:51;97586.97;;;1.06;100.00
5872;BME280;2962;51.312;7.378;2023-04-26T02:38:17;97584.44;;;0.87;100.00
5872;BME280;2962;51.312;7.378;2023-04-26T02:40:42;97590.97;;;0.95;100.00
5872;BME280;2962;51.312;7.378;2023-04-26T02:43:07;97584.50;;;0.96;100.00
5872;BME280;2962;51.312;7.378;2023-04-26T02:45:40;97590.94;;;1.09;100.00
5872;BME280;2962;51.312;7.378;2023-04-26T02:48:05;97589.38;;;1.08;100.00
5872;BME280;2962;51.312;7.378;2023-04-26T02:50:30;97579.03;;;1.01;100.00
5872;BME280;2962;51.312;7.378;2023-04-26T02:52:56;97584.41;;;1.01;100.00
5872;BME280;2962;51.312;7.378;2023-04-26T02:55:21;97596.13;;;1.05;100.00
5872;BME280;2962;51.312;7.378;2023-04-26T02:57:46;97593.56;;;1.00;100.00
5872;BME280;2962;51.312;7.378;2023-04-26T03:00:12;97587.50;;;0.94;100.00
5872;BME280;2962;51.312;7.378;2023-04-26T03:02:38;97582.66;;;0.83;100.00
5872;BME280;2962;51.312;7.378;2023-04-26T03:05:03;97586.91;;;0.84;100.00
5872;BME280;2962;51.312;7.378;2023-04-26T03:07:29;97584.03;;;0.80;100.00
5872;BME280;2962;51.312;7.378;2023-04-26T03:09:55;97583.03;;;0.90;100.00
5872;BME280;2962;51.312;7.378;2023-04-26T03:12:20;97572.13;;;0.86;100.00
5872;BME280;2962;51.312;7.378;2023-04-26T03:14:46;97582.72;;;0.91;100.00
5872;BME280;2962;51.312;7.378;2023-04-26T03:17:11;97586.19;;;0.92;100.00
5872;BME280;2962;51.312;7.378;2023-04-26T03:19:36;97584.44;;;0.87;100.00
5872;BME280;2962;51.312;7.378;2023-04-26T03:22:02;97568.19;;;0.70;100.00
5872;BME280;2962;51.312;7.378;2023-04-26T03:24:27;97581.88;;;0.82;100.00
5872;BME280;2962;51.312;7.378;2023-04-26T03:26:52;97585.03;;;0.84;100.00
5872;BME280;2962;51.312;7.378;2023-04-26T03:29:17;97577.88;;;0.80;100.00
5872;BME280;2962;51.312;7.378;2023-04-26T03:31:43;97577.47;;;0.86;100.00
5872;BME280;2962;51.312;7.378;2023-04-26T03:34:08;97574.69;;;0.91;100.00
5872;BME280;2962;51.312;7.378;2023-04-26T03:36:33;97570.72;;;0.89;100.00
5872;BME280;2962;51.312;7.378;2023-04-26T03:38:59;97570.63;;;0.80;100.00
5872;BME280;2962;51.312;7.378;2023-04-26T03:41:24;97574.00;;;0.86;100.00
5872;BME280;2962;51.312;7.378;2023-04-26T03:43:49;97577.47;;;0.86;100.00
5872;BME280;2962;51.312;7.378;2023-04-26T03:46:15;97577.16;;;0.88;100.00
5872;BME280;2962;51.312;7.378;2023-04-26T03:48:40;97575.28;;;0.88;100.00
5872;BME280;2962;51.312;7.378;2023-04-26T03:51:05;97578.28;;;0.87;100.00
5872;BME280;2962;51.312;7.378;2023-04-26T03:53:31;97565.78;;;0.82;100.00
5872;BME280;2962;51.312;7.378;2023-04-26T03:55:56;97573.22;;;0.85;100.00
5872;BME280;2962;51.312;7.378;2023-04-26T03:58:22;97570.34;;;0.82;100.00
5872;BME280;2962;51.312;7.378;2023-04-26T04:00:47;97573.50;;;0.84;100.00
5872;BME280;2962;51.312;7.378;2023-04-26T04:03:13;97568.66;;;0.72;100.00
5872;BME280;2962;51.312;7.378;2023-04-26T04:05:38;97575.31;;;0.75;100.00
5872;BME280;2962;51.312;7.378;2023-04-26T04:08:03;97563.31;;;0.72;100.00
5872;BME280;2962;51.312;7.378;2023-04-26T04:10:29;97573.63;;;0.79;100.00
5872;BME280;2962;51.312;7.378;2023-04-26T04:12:54;97572.31;;;0.76;100.00
5872;BME280;2962;51.312;7.378;2023-04-26T04:15:20;97575.00;;;0.76;100.00
5872;BME280;2962;51.312;7.378;2023-04-26T04:17:45;97570.75;;;0.75;100.00
5872;BME280;2962;51.312;7.378;2023-04-26T04:20:12;97566.09;;;0.67;100.00
5872;BME280;2962;51.312;7.378;2023-04-26T04:22:37;97572.94;;;0.73;100.00
5872;BME280;2962;51.312;7.378;2023-04-26T04:25:05;97576.13;;;0.75;100.00
5872;BME280;2962;51.312;7.378;2023-04-26T04:27:31;97579.19;;;0.82;100.00
5872;BME280;2962;51.312;7.378;2023-04-26T04:29:56;97585.22;;;0.88;100.00
5872;BME280;2962;51.312;7.378;2023-04-26T04:32:21;97574.09;;;0.81;100.00
5872;BME280;2962;51.312;7.378;2023-04-26T04:34:48;97578.78;;;0.89;100.00
5872;BME280;2962;51.312;7.378;2023-04-26T04:37:13;97585.41;;;0.91;100.00
5872;BME280;2962;51.312;7.378;2023-04-26T04:39:39;97578.09;;;0.83;100.00
5872;BME280;2962;51.312;7.378;2023-04-26T04:42:04;97583.44;;;0.97;100.00
5872;BME280;2962;51.312;7.378;2023-04-26T04:44:30;97578.34;;;0.95;100.00
5872;BME280;2962;51.312;7.378;2023-04-26T04:46:55;97597.50;;;1.03;100.00
5872;BME280;2962;51.312;7.378;2023-04-26T04:49:21;97592.13;;;1.03;100.00
5872;BME280;2962;51.312;7.378;2023-04-26T04:51:46;97574.28;;;0.98;100.00
5872;BME280;2962;51.312;7.378;2023-04-26T04:54:13;97595.81;;;1.07;100.00
5872;BME280;2962;51.312;7.378;2023-04-26T04:56:39;97583.69;;;1.09;100.00
5872;BME280;2962;51.312;7.378;2023-04-26T04:59:05;97590.94;;;1.09;100.00
5872;BME280;2962;51.312;7.378;2023-04-26T05:01:31;97581.59;;;1.06;100.00
5872;BME280;2962;51.312;7.378;2023-04-26T05:03:57;97585.88;;;1.07;100.00
5872;BME280;2962;51.312;7.378;2023-04-26T05:06:23;97593.03;;;1.12;100.00
5872;BME280;2962;51.312;7.378;2023-04-26T05:08:48;97600.81;;;1.22;100.00
5872;BME280;2962;51.312;7.378;2023-04-26T05:11:13;97597.66;;;1.20;100.00
5872;BME280;2962;51.312;7.378;2023-04-26T05:13:39;97594.25;;;1.28;100.00
5872;BME280;2962;51.312;7.378;2023-04-26T05:16:04;97583.66;;;1.23;100.00
5872;BME280;2962;51.312;7.378;2023-04-26T05:18:30;97584.13;;;1.25;100.00
5872;BME280;2962;51.312;7.378;2023-04-26T05:20:56;97611.22;;;1.37;100.00
5872;BME280;2962;51.312;7.378;2023-04-26T05:23:21;97600.38;;;1.42;100.00
5872;BME280;2962;51.312;7.378;2023-04-26T05:25:47;97608.31;;;1.48;100.00
5872;BME280;2962;51.312;7.378;2023-04-26T05:28:12;97599.75;;;1.45;100.00
5872;BME280;2962;51.312;7.378;2023-04-26T05:30:38;97603.66;;;1.39;100.00
5872;BME280;2962;51.312;7.378;2023-04-26T05:33:03;97610.38;;;1.51;100.00
5872;BME280;2962;51.312;7.378;2023-04-26T05:35:29;97622.28;;;1.58;100.00
5872;BME280;2962;51.312;7.378;2023-04-26T05:37:54;97612.19;;;1.64;100.00
5872;BME280;2962;51.312;7.378;2023-04-26T05:40:20;97625.41;;;1.74;100.00
5872;BME280;2962;51.312;7.378;2023-04-26T05:42:45;97631.63;;;2.14;100.00
5872;BME280;2962;51.312;7.378;2023-04-26T05:45:11;97628.63;;;2.47;100.00
5872;BME280;2962;51.312;7.378;2023-04-26T05:47:36;97641.63;;;2.54;100.00
5872;BME280;2962;51.312;7.378;2023-04-26T05:50:02;97626.09;;;2.51;100.00
5872;BME280;2962;51.312;7.378;2023-04-26T05:52:27;97628.63;;;2.47;100.00
5872;BME280;2962;51.312;7.378;2023-04-26T05:54:52;97622.97;;;2.26;100.00
5872;BME280;2962;51.312;7.378;2023-04-26T05:57:18;97635.16;;;2.24;100.00
5872;BME280;2962;51.312;7.378;2023-04-26T05:59:43;97637.00;;;2.14;100.00
5872;BME280;2962;51.312;7.378;2023-04-26T06:02:08;97638.72;;;2.10;100.00
5872;BME280;2962;51.312;7.378;2023-04-26T06:04:34;97636.81;;;2.11;100.00
5872;BME280;2962;51.312;7.378;2023-04-26T06:06:59;97644.94;;;2.19;100.00
5872;BME280;2962;51.312;7.378;2023-04-26T06:09:25;97636.22;;;2.14;100.00
5872;BME280;2962;51.312;7.378;2023-04-26T06:11:51;97652.03;;;2.15;100.00
5872;BME280;2962;51.312;7.378;2023-04-26T06:14:16;97657.47;;;2.24;100.00
5872;BME280;2962;51.312;7.378;2023-04-26T06:16:41;97653.81;;;2.20;100.00
5872;BME280;2962;51.312;7.378;2023-04-26T06:19:06;97642.09;;;2.16;100.00
5872;BME280;2962;51.312;7.378;2023-04-26T06:21:32;97651.91;;;2.20;100.00
5872;BME280;2962;51.312;7.378;2023-04-26T06:23:57;97649.56;;;2.28;100.00
5872;BME280;2962;51.312;7.378;2023-04-26T06:26:22;97659.75;;;2.39;100.00
5872;BME280;2962;51.312;7.378;2023-04-26T06:28:47;97655.63;;;2.42;100.00
5872;BME280;2962;51.312;7.378;2023-04-26T06:31:13;97649.97;;;2.43;100.00
5872;BME280;2962;51.312;7.378;2023-04-26T06:33:38;97657.13;;;2.57;100.00
5872;BME280;2962;51.312;7.378;2023-04-26T06:36:04;97654.81;;;2.73;100.00
5872;BME280;2962;51.312;7.378;2023-04-26T06:38:29;97648.03;;;2.84;100.00
5872;BME280;2962;51.312;7.378;2023-04-26T06:40:54;97667.03;;;2.79;100.00
5872;BME280;2962;51.312;7.378;2023-04-26T06:43:20;97646.78;;;2.81;100.00
5872;BME280;2962;51.312;7.378;2023-04-26T06:45:45;97652.88;;;3.22;100.00
5872;BME280;2962;51.312;7.378;2023-04-26T06:48:10;97649.41;;;3.38;100.00
5872;BME280;2962;51.312;7.378;2023-04-26T06:50:39;97653.19;;;3.72;100.00
5872;BME280;2962;51.312;7.378;2023-04-26T06:53:04;97652.25;;;3.77;100.00
5872;BME280;2962;51.312;7.378;2023-04-26T06:55:29;97657.00;;;3.80;100.00
5872;BME280;2962;51.312;7.378;2023-04-26T06:57:55;97651.47;;;3.85;100.00
5872;BME280;2962;51.312;7.378;2023-04-26T07:00:21;97640.69;;;3.85;100.00
5872;BME280;2962;51.312;7.378;2023-04-26T07:02:46;97650.63;;;4.19;100.00
5872;BME280;2962;51.312;7.378;2023-04-26T07:05:11;97639.94;;;4.31;100.00
5872;BME280;2962;51.312;7.378;2023-04-26T07:07:37;97635.78;;;4.43;100.00
5872;BME280;2962;51.312;7.378;2023-04-26T07:10:03;97637.50;;;4.47;100.00
5872;BME280;2962;51.312;7.378;2023-04-26T07:12:28;97647.66;;;4.41;100.00
5872;BME280;2962;51.312;7.378;2023-04-26T07:14:53;97650.91;;;4.64;100.00
5872;BME280;2962;51.312;7.378;2023-04-26T07:17:19;97649.72;;;4.45;100.00
5872;BME280;2962;51.312;7.378;2023-04-26T07:19:45;97636.91;;;4.33;100.00
5872;BME280;2962;51.312;7.378;2023-04-26T07:22:10;97643.84;;;4.51;100.00
5872;BME280;2962;51.312;7.378;2023-04-26T07:24:36;97642.75;;;4.82;100.00
5872;BME280;2962;51.312;7.378;2023-04-26T07:27:01;97633.22;;;4.84;100.00
5872;BME280;2962;51.312;7.378;2023-04-26T07:29:27;97643.13;;;5.01;100.00
5872;BME280;2962;51.312;7.378;2023-04-26T07:31:52;97648.94;;;5.12;100.00
5872;BME280;2962;51.312;7.378;2023-04-26T07:34:18;97642.56;;;5.58;100.00
5872;BME280;2962;51.312;7.378;2023-04-26T07:36:43;97648.09;;;5.62;100.00
5872;BME280;2962;51.312;7.378;2023-04-26T07:39:09;97647.53;;;5.90;100.00
5872;BME280;2962;51.312;7.378;2023-04-26T07:41:35;97654.00;;;5.76;100.00
5872;BME280;2962;51.312;7.378;2023-04-26T07:44:01;97640.88;;;5.54;100.00
5872;BME280;2962;51.312;7.378;2023-04-26T07:46:26;97650.84;;;5.11;100.00
5872;BME280;2962;51.312;7.378;2023-04-26T07:48:51;97640.00;;;4.90;100.00
5872;BME280;2962;51.312;7.378;2023-04-26T07:51:17;97648.59;;;4.54;100.00
5872;BME280;2962;51.312;7.378;2023-04-26T07:53:42;97644.47;;;4.48;100.00
5872;BME280;2962;51.312;7.378;2023-04-26T07:56:07;97639.03;;;4.57;100.00
5872;BME280;2962;51.312;7.378;2023-04-26T07:58:34;97624.97;;;4.81;100.00
5872;BME280;2962;51.312;7.378;2023-04-26T08:01:00;97638.75;;;5.38;100.00
5872;BME280;2962;51.312;7.378;2023-04-26T08:03:25;97644.53;;;5.49;100.00
5872;BME280;2962;51.312;7.378;2023-04-26T08:05:54;97648.75;;;6.01;100.00
5872;BME280;2962;51.312;7.378;2023-04-26T08:08:20;97645.31;;;6.25;100.00
5872;BME280;2962;51.312;7.378;2023-04-26T08:10:46;97633.06;;;6.76;100.00
5872;BME280;2962;51.312;7.378;2023-04-26T08:13:12;97640.63;;;6.95;100.00
5872;BME280;2962;51.312;7.378;2023-04-26T08:15:37;97644.34;;;7.03;100.00
5872;BME280;2962;51.312;7.378;2023-04-26T08:18:02;97645.94;;;6.79;100.00
5872;BME280;2962;51.312;7.378;2023-04-26T08:20:28;97633.19;;;6.55;100.00
5872;BME280;2962;51.312;7.378;2023-04-26T08:22:56;97647.25;;;6.36;100.00
5872;BME280;2962;51.312;7.378;2023-04-26T08:25:22;97640.19;;;6.11;100.00
5872;BME280;2962;51.312;7.378;2023-04-26T08:27:48;97636.41;;;6.24;100.00
5872;BME280;2962;51.312;7.378;2023-04-26T08:30:14;97630.72;;;6.05;100.00
5872;BME280;2962;51.312;7.378;2023-04-26T08:32:39;97636.25;;;6.08;100.00
5872;BME280;2962;51.312;7.378;2023-04-26T08:35:05;97640.44;;;6.18;100.00
5872;BME280;2962;51.312;7.378;2023-04-26T08:37:33;97638.66;;;6.22;100.00
5872;BME280;2962;51.312;7.378;2023-04-26T08:40:00;97646.13;;;6.38;100.00
5872;BME280;2962;51.312;7.378;2023-04-26T08:42:26;97636.13;;;6.50;100.00
5872;BME280;2962;51.312;7.378;2023-04-26T08:44:55;97636.63;;;6.19;100.00
5872;BME280;2962;51.312;7.378;2023-04-26T08:47:28;97643.22;;;5.97;100.00
5872;BME280;2962;51.312;7.378;2023-04-26T08:49:57;97655.88;;;5.84;100.00
5872;BME280;2962;51.312;7.378;2023-04-26T08:52:31;97645.34;;;5.50;100.00
5872;BME280;2962;51.312;7.378;2023-04-26T08:54:58;97642.22;;;5.18;100.00
5872;BME280;2962;51.312;7.378;2023-04-26T08:57:24;97649.34;;;4.93;100.00
5872;BME280;2962;51.312;7.378;2023-04-26T08:59:50;97647.94;;;4.87;100.00
5872;BME280;2962;51.312;7.378;2023-04-26T09:02:21;97658.50;;;4.71;100.00
5872;BME280;2962;51.312;7.378;2023-04-26T09:04:48;97655.34;;;4.69;100.00
5872;BME280;2962;51.312;7.378;2023-04-26T09:07:19;97664.50;;;4.85;100.00
5872;BME280;2962;51.312;7.378;2023-04-26T09:09:47;97658.69;;;4.96;100.00
5872;BME280;2962;51.312;7.378;2023-04-26T09:12:18;97640.41;;;5.31;100.00
5872;BME280;2962;51.312;7.378;2023-04-26T09:14:46;97659.44;;;5.55;100.00
5872;BME280;2962;51.312;7.378;2023-04-26T09:17:27;97647.53;;;5.90;100.00
5872;BME280;2962;51.312;7.378;2023-04-26T09:19:53;97650.81;;;6.16;100.00
5872;BME280;2962;51.312;7.378;2023-04-26T09:22:46;97650.88;;;6.41;100.00
5872;BME280;2962;51.312;7.378;2023-04-26T09:25:12;97653.84;;;6.72;100.00
5872;BME280;2962;51.312;7.378;2023-04-26T09:27:39;97660.94;;;7.14;100.00
5872;BME280;2962;51.312;7.378;2023-04-26T09:30:10;97653.16;;;7.77;100.00
5872;BME280;2962;51.312;7.378;2023-04-26T09:32:58;97649.66;;;7.76;100.00
5872;BME280;2962;51.312;7.378;2023-04-26T09:35:32;97655.09;;;8.20;100.00
5872;BME280;2962;51.312;7.378;2023-04-26T09:38:06;97644.41;;;7.83;100.00
5872;BME280;2962;51.312;7.378;2023-04-26T09:40:43;97655.88;;;7.24;100.00
5872;BME280;2962;51.312;7.378;2023-04-26T09:43:19;97650.38;;;6.96;100.00
5872;BME280;2962;51.312;7.378;2023-04-26T09:45:47;97656.78;;;6.67;100.00
5872;BME280;2962;51.312;7.378;2023-04-26T09:48:22;97657.03;;;6.29;100.00
5872;BME280;2962;51.312;7.378;2023-04-26T09:50:51;97648.38;;;6.35;100.00
5872;BME280;2962;51.312;7.378;2023-04-26T09:56:12;97651.34;;;6.43;100.00
5872;BME280;2962;51.312;7.378;2023-04-26T09:58:53;97635.94;;;6.22;100.00
5872;BME280;2962;51.312;7.378;2023-04-26T10:01:23;97647.50;;;6.44;100.00
5872;BME280;2962;51.312;7.378;2023-04-26T10:03:48;97653.91;;;6.27;100.00
5872;BME280;2962;51.312;7.378;2023-04-26T10:06:14;97632.91;;;6.24;100.00
5872;BME280;2962;51.312;7.378;2023-04-26T10:08:40;97634.53;;;6.49;100.00
5872;BME280;2962;51.312;7.378;2023-04-26T10:11:05;97625.75;;;6.89;100.00
5872;BME280;2962;51.312;7.378;2023-04-26T10:13:38;97642.06;;;7.29;100.00
5872;BME280;2962;51.312;7.378;2023-04-26T10:16:04;97633.75;;;7.63;100.00
5872;BME280;2962;51.312;7.378;2023-04-26T10:18:31;97622.47;;;7.89;100.00
5872;BME280;2962;51.312;7.378;2023-04-26T10:21:01;97629.00;;;7.88;100.00
5872;BME280;2962;51.312;7.378;2023-04-26T10:23:29;97632.66;;;7.79;100.00
5872;BME280;2962;51.312;7.378;2023-04-26T10:25:55;97632.75;;;7.55;100.00
5872;BME280;2962;51.312;7.378;2023-04-26T10:31:10;97626.09;;;8.84;100.00
5872;BME280;2962;51.312;7.378;2023-04-26T10:33:35;97621.75;;;9.69;100.00
5872;BME280;2962;51.312;7.378;2023-04-26T10:36:12;97626.66;;;9.83;100.00
5872;BME280;2962;51.312;7.378;2023-04-26T10:38:40;97624.47;;;9.89;100.00
5872;BME280;2962;51.312;7.378;2023-04-26T10:41:28;97627.19;;;8.99;100.00
5872;BME280;2962;51.312;7.378;2023-04-26T10:43:54;97632.56;;;8.79;100.00
5872;BME280;2962;51.312;7.378;2023-04-26T10:46:35;97622.38;;;7.85;100.00
5872;BME280;2962;51.312;7.378;2023-04-26T10:49:15;97620.44;;;7.57;100.00
5872;BME280;2962;51.312;7.378;2023-04-26T10:52:07;97614.66;;;7.19;100.00
5872;BME280;2962;51.312;7.378;2023-04-26T10:54:50;97599.75;;;7.13;100.00
5872;BME280;2962;51.312;7.378;2023-04-26T10:57:16;97604.25;;;7.21;100.00
5872;BME280;2962;51.312;7.378;2023-04-26T11:00:15;97619.75;;;7.20;100.00
5872;BME280;2962;51.312;7.378;2023-04-26T11:02:55;97614.13;;;7.53;100.00
5872;BME280;2962;51.312;7.378;2023-04-26T11:05:56;97614.00;;;8.06;100.00
5872;BME280;2962;51.312;7.378;2023-04-26T11:08:26;97610.06;;;8.63;100.00
5872;BME280;2962;51.312;7.378;2023-04-26T11:13:29;97615.69;;;7.54;100.00
5872;BME280;2962;51.312;7.378;2023-04-26T11:16:02;97614.75;;;7.22;100.00
5872;BME280;2962;51.312;7.378;2023-04-26T11:18:29;97618.06;;;7.16;100.00
5872;BME280;2962;51.312;7.378;2023-04-26T11:20:55;97613.97;;;7.22;100.00
5872;BME280;2962;51.312;7.378;2023-04-26T11:23:22;97624.44;;;7.36;100.00
5872;BME280;2962;51.312;7.378;2023-04-26T11:25:48;97616.31;;;7.36;100.00
5872;BME280;2962;51.312;7.378;2023-04-26T11:28:14;97616.75;;;7.38;100.00
5872;BME280;2962;51.312;7.378;2023-04-26T11:30:39;97615.41;;;7.72;100.00
5872;BME280;2962;51.312;7.378;2023-04-26T11:33:05;97617.38;;;7.87;100.00
5872;BME280;2962;51.312;7.378;2023-04-26T11:35:34;97606.69;;;7.78;100.00
5872;BME280;2962;51.312;7.378;2023-04-26T11:38:01;97619.56;;;8.25;100.00
5872;BME280;2962;51.312;7.378;2023-04-26T11:40:29;97614.09;;;8.69;100.00
5872;BME280;2962;51.312;7.378;2023-04-26T11:42:58;97613.53;;;8.79;100.00
5872;BME280;2962;51.312;7.378;2023-04-26T11:45:23;97601.97;;;9.53;100.00
5872;BME280;2962;51.312;7.378;2023-04-26T11:47:49;97608.63;;;10.37;95.34
5872;BME280;2962;51.312;7.378;2023-04-26T11:50:14;97616.69;;;10.30;95.28
5872;BME280;2962;51.312;7.378;2023-04-26T11:52:40;97615.13;;;10.29;91.67
5872;BME280;2962;51.312;7.378;2023-04-26T11:55:06;97618.81;;;9.78;88.06
5872;BME280;2962;51.312;7.378;2023-04-26T11:57:33;97607.47;;;9.02;100.00
5872;BME280;2962;51.312;7.378;2023-04-26T12:00:12;97608.84;;;9.47;100.00
5872;BME280;2962;51.312;7.378;2023-04-26T12:02:48;97610.34;;;9.09;100.00
5872;BME280;2962;51.312;7.378;2023-04-26T12:05:24;97626.41;;;8.35;100.00
5872;BME280;2962;51.312;7.378;2023-04-26T12:07:51;97609.88;;;8.72;100.00
5872;BME280;2962;51.312;7.378;2023-04-26T12:10:18;97607.78;;;8.65;100.00
5872;BME280;2962;51.312;7.378;2023-04-26T12:12:49;97610.25;;;8.54;100.00
5872;BME280;2962;51.312;7.378;2023-04-26T12:15:16;97610.75;;;9.27;100.00
5872;BME280;2962;51.312;7.378;2023-04-26T12:17:52;97610.06;;;10.08;100.00
5872;BME280;2962;51.312;7.378;2023-04-26T12:20:18;97606.53;;;10.99;100.00
5872;BME280;2962;51.312;7.378;2023-04-26T12:25:24;97611.84;;;11.45;85.56
5872;BME280;2962;51.312;7.378;2023-04-26T12:27:49;97611.97;;;10.99;79.39
5872;BME280;2962;51.312;7.378;2023-04-26T12:30:15;97609.25;;;10.72;84.49
5872;BME280;2962;51.312;7.378;2023-04-26T12:32:40;97616.28;;;10.73;88.58
5872;BME280;2962;51.312;7.378;2023-04-26T12:35:06;97611.72;;;9.73;91.55
5872;BME280;2962;51.312;7.378;2023-04-26T12:37:31;97618.50;;;9.83;94.94
5872;BME280;2962;51.312;7.378;2023-04-26T12:40:00;97617.09;;;9.15;83.27
5872;BME280;2962;51.312;7.378;2023-04-26T12:42:25;97619.59;;;8.89;93.65
5872;BME280;2962;51.312;7.378;2023-04-26T12:44:51;97616.56;;;9.84;87.27
5872;BME280;2962;51.312;7.378;2023-04-26T12:47:16;97616.28;;;10.27;83.60
5872;BME280;2962;51.312;7.378;2023-04-26T12:49:42;97613.25;;;10.56;81.51
5872;BME280;2962;51.312;7.378;2023-04-26T12:52:07;97613.50;;;10.70;76.79
5872;BME280;2962;51.312;7.378;2023-04-26T12:54:32;97616.53;;;10.65;67.79
5872;BME280;2962;51.312;7.378;2023-04-26T12:56:58;97608.00;;;11.19;68.65
5872;BME280;2962;51.312;7.378;2023-04-26T12:59:26;97614.88;;;11.66;66.21
5872;BME280;2962;51.312;7.378;2023-04-26T13:01:51;97616.16;;;11.46;69.07
5872;BME280;2962;51.312;7.378;2023-04-26T13:04:16;97604.09;;;11.47;72.98
5872;BME280;2962;51.312;7.378;2023-04-26T13:06:45;97613.03;;;10.91;65.54
5872;BME280;2962;51.312;7.378;2023-04-26T13:09:10;97614.19;;;10.90;69.67
5872;BME280;2962;51.312;7.378;2023-04-26T13:11:38;97610.34;;;11.47;69.46
5872;BME280;2962;51.312;7.378;2023-04-26T13:14:03;97609.22;;;11.82;69.24
5872;BME280;2962;51.312;7.378;2023-04-26T13:16:34;97601.38;;;13.03;66.35
5872;BME280;2962;51.312;7.378;2023-04-26T13:18:59;97598.22;;;13.63;58.75
5872;BME280;2962;51.312;7.378;2023-04-26T13:21:25;97601.66;;;12.84;56.00
5872;BME280;2962;51.312;7.378;2023-04-26T13:23:50;97598.91;;;12.87;66.01
5872;BME280;2962;51.312;7.378;2023-04-26T13:26:16;97601.09;;;12.67;63.32
5872;BME280;2962;51.312;7.378;2023-04-26T13:28:42;97597.88;;;12.14;60.41
5872;BME280;2962;51.312;7.378;2023-04-26T13:31:07;97598.81;;;13.25;57.23